Time;durP1;ratioP1;P1;durP2;ratioP2;P2;SDS_P1;SDS_P2;PMS_P1;PMS_P2;Temp;Humidity;BMP_temperature;BMP_pressure;BME280_temperature;BME280_humidity;BME280_pressure;Samples;Min_cycle;Max_cycle;Signal;HPM_P1;HPM_P2
2022/12/04 00:01:31;;;;;;;27.80;20.03;;;4.50;99.90;;;;;;5033691;28;20426;-70
2022/12/04 00:03:58;;;;;;;28.23;20.43;;;4.60;99.90;;;;;;5033335;28;20180;-70
2022/12/04 00:06:24;;;;;;;25.77;19.37;;;4.70;99.90;;;;;;5031531;28;20228;-70
2022/12/04 00:08:51;;;;;;;31.47;21.90;;;4.60;99.90;;;;;;5032997;28;20488;-71
2022/12/04 00:11:20;;;;;;;28.13;19.50;;;4.70;99.90;;;;;;5033101;28;20777;-69
2022/12/04 00:13:47;;;;;;;28.07;21.13;;;4.70;99.90;;;;;;5033235;28;20406;-71
2022/12/04 00:16:18;;;;;;;25.80;18.00;;;4.50;99.90;;;;;;5033851;28;20497;-73
2022/12/04 00:18:43;;;;;;;25.57;20.00;;;4.60;99.90;;;;;;5033821;28;20445;-71
2022/12/04 00:21:11;;;;;;;28.97;20.43;;;4.80;99.90;;;;;;5033584;28;20934;-71
2022/12/04 00:23:37;;;;;;;25.87;19.73;;;4.40;99.90;;;;;;5031574;28;20198;-71
2022/12/04 00:26:05;;;;;;;26.20;19.53;;;4.20;99.90;;;;;;5033210;28;20457;-70
2022/12/04 00:28:32;;;;;;;28.83;19.53;;;4.20;99.90;;;;;;5033121;28;20402;-71
2022/12/04 00:30:58;;;;;;;26.37;19.17;;;4.50;99.90;;;;;;5039820;28;20778;-70
2022/12/04 00:33:23;;;;;;;29.17;20.17;;;4.50;99.90;;;;;;5039651;28;20490;-71
2022/12/04 00:35:57;;;;;;;27.10;18.77;;;4.20;99.90;;;;;;5039979;28;20167;-71
2022/12/04 00:38:22;;;;;;;28.87;19.87;;;4.20;99.90;;;;;;5039445;28;20216;-71
2022/12/04 00:40:50;;;;;;;27.30;19.57;;;3.90;99.90;;;;;;5040059;28;20828;-72
2022/12/04 00:43:15;;;;;;;27.67;19.33;;;4.00;99.90;;;;;;5039607;28;20171;-70
2022/12/04 00:45:41;;;;;;;27.80;19.83;;;4.20;99.90;;;;;;5040404;28;20805;-72
2022/12/04 00:48:06;;;;;;;24.67;18.53;;;4.20;99.90;;;;;;5038880;28;20167;-70
2022/12/04 00:50:32;;;;;;;28.40;17.70;;;4.00;99.90;;;;;;5002522;28;20184;-71
2022/12/04 00:52:58;;;;;;;28.63;20.80;;;4.10;99.90;;;;;;5004055;28;20176;-70
2022/12/04 00:55:23;;;;;;;24.73;17.70;;;4.20;99.90;;;;;;5019650;28;20172;-70
2022/12/04 00:57:49;;;;;;;25.63;18.47;;;4.40;99.90;;;;;;5019841;28;20175;-71
2022/12/04 01:00:14;;;;;;;26.80;20.07;;;4.40;99.90;;;;;;5019635;28;20710;-71
2022/12/04 01:02:40;;;;;;;25.30;17.87;;;4.40;99.90;;;;;;5019446;28;20600;-72
2022/12/04 01:05:06;;;;;;;24.33;17.77;;;4.20;99.90;;;;;;5016614;28;20242;-72
2022/12/04 01:07:32;;;;;;;24.77;18.07;;;4.00;99.90;;;;;;5001742;28;20182;-72
2022/12/04 01:09:57;;;;;;;23.13;16.77;;;3.90;99.90;;;;;;5019319;28;20222;-73
2022/12/04 01:12:23;;;;;;;23.57;15.67;;;3.90;99.90;;;;;;5019386;28;20214;-70
2022/12/04 01:14:48;;;;;;;24.57;17.90;;;3.90;99.90;;;;;;5019194;28;20226;-71
2022/12/04 01:17:14;;;;;;;25.23;18.40;;;4.10;99.90;;;;;;5020163;28;20580;-70
2022/12/04 01:19:40;;;;;;;24.70;17.30;;;4.10;99.90;;;;;;5020306;28;20636;-70
2022/12/04 01:22:05;;;;;;;26.60;18.90;;;4.10;99.90;;;;;;5020422;28;20663;-71
2022/12/04 01:24:31;;;;;;;23.10;16.83;;;4.10;99.90;;;;;;5033172;28;20179;-70
2022/12/04 01:26:56;;;;;;;26.67;17.57;;;4.00;99.90;;;;;;5039231;28;20195;-71
2022/12/04 01:29:22;;;;;;;26.33;17.47;;;4.00;99.90;;;;;;5039733;28;20167;-71
2022/12/04 01:31:47;;;;;;;26.90;18.27;;;4.00;99.90;;;;;;5038921;28;20187;-71
2022/12/04 01:34:13;;;;;;;23.10;17.03;;;4.10;99.90;;;;;;5039171;28;20194;-72
2022/12/04 01:36:39;;;;;;;24.17;18.40;;;4.00;99.90;;;;;;5039055;28;20170;-71
2022/12/04 01:39:04;;;;;;;22.90;16.90;;;4.00;99.90;;;;;;5038672;28;20185;-72
2022/12/04 01:41:31;;;;;;;28.47;18.50;;;4.00;99.90;;;;;;5036401;28;20198;-71
2022/12/04 01:44:26;;;;;;;23.63;16.63;;;4.10;99.90;;;;;;5036262;28;20171;-71
2022/12/04 01:46:56;;;;;;;24.00;16.40;;;4.30;99.90;;;;;;5014539;28;21007;-71
2022/12/04 01:49:31;;;;;;;24.60;18.10;;;4.30;99.90;;;;;;5035813;28;20409;-70
2022/12/04 01:52:06;;;;;;;24.70;17.10;;;4.30;99.90;;;;;;5036171;28;20833;-71
2022/12/04 01:54:38;;;;;;;21.97;17.03;;;4.20;99.90;;;;;;5035152;28;20460;-70
2022/12/04 01:57:11;;;;;;;23.13;16.60;;;4.30;99.90;;;;;;5035875;28;20758;-70
2022/12/04 01:59:44;;;;;;;20.33;14.70;;;4.30;99.90;;;;;;5034611;28;20484;-72
2022/12/04 02:02:13;;;;;;;24.87;18.07;;;4.50;99.90;;;;;;5036042;28;20442;-70
2022/12/04 02:04:40;;;;;;;25.77;18.47;;;4.30;99.90;;;;;;5035685;28;20406;-71
2022/12/04 02:07:06;;;;;;;21.83;16.50;;;4.30;99.90;;;;;;5035634;28;20406;-71
2022/12/04 02:09:32;;;;;;;21.20;16.57;;;4.40;99.90;;;;;;5033575;28;20479;-70
2022/12/04 02:12:37;;;;;;;21.37;15.87;;;4.40;99.90;;;;;;5035208;28;20205;-69
2022/12/04 02:15:24;;;;;;;20.90;15.03;;;4.40;99.90;;;;;;5035520;28;20395;-69
2022/12/04 02:18:05;;;;;;;20.80;16.93;;;4.30;99.90;;;;;;5035136;28;20450;-71
2022/12/04 02:21:22;;;;;;;23.23;17.33;;;4.30;99.90;;;;;;5033892;28;20842;-72
2022/12/04 02:24:05;;;;;;;23.60;15.27;;;4.40;99.90;;;;;;4980378;28;20428;-71
2022/12/04 02:27:04;;;;;;;23.50;16.60;;;4.50;99.90;;;;;;5033608;28;20465;-71
2022/12/04 02:29:34;;;;;;;22.43;16.43;;;4.40;99.90;;;;;;5035083;28;20406;-72
2022/12/04 02:32:02;;;;;;;22.97;17.37;;;4.40;99.90;;;;;;5017420;28;20868;-70
2022/12/04 02:34:32;;;;;;;25.53;17.33;;;4.40;99.90;;;;;;5034843;28;20448;-71
2022/12/04 02:37:07;;;;;;;20.73;16.03;;;4.40;99.90;;;;;;5034906;28;20414;-71
2022/12/04 02:39:42;;;;;;;23.93;17.60;;;4.30;99.90;;;;;;5034554;28;20406;-70
2022/12/04 02:42:16;;;;;;;20.30;15.57;;;4.30;99.90;;;;;;5034413;28;20436;-71
2022/12/04 02:44:46;;;;;;;21.10;15.90;;;4.40;99.90;;;;;;5010368;28;20415;-71
2022/12/04 02:47:15;;;;;;;23.13;17.37;;;4.60;99.90;;;;;;4995352;28;20403;-71
2022/12/04 02:49:45;;;;;;;22.13;17.80;;;4.50;99.90;;;;;;4995264;28;20412;-71
2022/12/04 02:52:15;;;;;;;23.57;18.80;;;4.50;99.90;;;;;;4995071;28;20450;-70
2022/12/04 02:54:45;;;;;;;24.17;16.80;;;4.50;99.90;;;;;;4977495;28;20853;-70
2022/12/04 02:57:16;;;;;;;24.60;17.83;;;4.50;99.90;;;;;;5012431;28;20419;-71
2022/12/04 02:59:44;;;;;;;24.47;18.80;;;4.50;99.90;;;;;;5014764;28;20394;-70
2022/12/04 03:02:25;;;;;;;21.47;16.60;;;4.50;99.90;;;;;;5013105;28;20493;-71
2022/12/04 03:04:54;;;;;;;26.37;19.17;;;4.50;99.90;;;;;;4994810;28;20400;-70
2022/12/04 03:07:26;;;;;;;24.43;17.87;;;4.60;99.90;;;;;;4994977;28;20419;-70
2022/12/04 03:10:01;;;;;;;28.00;18.73;;;4.80;99.90;;;;;;4995064;28;20393;-71
2022/12/04 03:12:38;;;;;;;26.93;18.63;;;4.50;99.90;;;;;;4994847;28;20793;-71
2022/12/04 03:15:20;;;;;;;24.60;18.97;;;4.60;99.90;;;;;;5009431;28;20940;-70
2022/12/04 03:18:08;;;;;;;24.63;17.50;;;4.40;99.90;;;;;;5034410;28;20387;-72
2022/12/04 03:20:36;;;;;;;21.90;17.07;;;4.50;99.90;;;;;;5034311;28;20398;-69
2022/12/04 03:23:24;;;;;;;25.10;19.70;;;4.50;99.90;;;;;;5034400;28;20410;-71
2022/12/04 03:26:03;;;;;;;27.67;19.30;;;4.50;99.90;;;;;;5031247;28;20547;-70
2022/12/04 03:28:39;;;;;;;26.20;18.03;;;4.60;99.90;;;;;;5034164;28;20401;-71
2022/12/04 03:31:08;;;;;;;28.07;20.43;;;4.70;99.90;;;;;;5034258;28;20429;-72
2022/12/04 03:33:42;;;;;;;23.33;17.73;;;4.70;99.90;;;;;;5033693;28;20513;-70
2022/12/04 03:36:23;;;;;;;22.70;16.87;;;4.70;99.90;;;;;;5033816;28;20398;-70
2022/12/04 03:39:00;;;;;;;27.70;18.73;;;4.80;99.90;;;;;;5034074;28;20394;-71
2022/12/04 03:41:44;;;;;;;28.20;19.23;;;4.90;99.90;;;;;;5033196;28;20436;-70
2022/12/04 03:44:36;;;;;;;27.53;18.80;;;4.70;99.90;;;;;;5033641;28;20391;-71
2022/12/04 03:47:17;;;;;;;31.20;22.17;;;4.70;99.90;;;;;;5033424;28;20442;-70
2022/12/04 03:49:53;;;;;;;29.40;20.83;;;4.70;99.90;;;;;;5033455;28;20390;-71
2022/12/04 03:52:47;;;;;;;24.87;18.37;;;4.80;99.90;;;;;;5033574;28;20418;-70
2022/12/04 03:55:28;;;;;;;25.70;19.17;;;4.90;99.90;;;;;;5033702;28;20432;-69
2022/12/04 03:58:01;;;;;;;27.33;19.53;;;4.90;99.90;;;;;;5033262;28;20402;-70
2022/12/04 04:00:28;;;;;;;29.90;20.50;;;4.60;99.90;;;;;;5033537;28;20426;-71
2022/12/04 04:03:02;;;;;;;25.17;18.80;;;4.50;99.90;;;;;;5015654;28;20480;-70
2022/12/04 04:05:30;;;;;;;27.47;18.27;;;4.50;99.90;;;;;;5032672;28;20452;-71
2022/12/04 04:08:24;;;;;;;27.87;18.70;;;4.40;99.90;;;;;;5015604;28;20513;-70
2022/12/04 04:10:46;;;;;;;29.73;21.33;;;4.20;99.90;;;;;;5032646;28;20426;-71
2022/12/04 04:24:35;;;;;;;28.70;19.90;;;4.50;99.90;;;;;;5033662;28;20478;-70
2022/12/04 04:27:01;;;;;;;25.10;18.20;;;4.40;99.90;;;;;;5031227;28;20463;-70
2022/12/04 04:29:27;;;;;;;26.70;18.10;;;4.50;99.90;;;;;;5032337;28;20413;-71
2022/12/04 04:32:03;;;;;;;30.43;20.27;;;4.60;99.90;;;;;;5032999;28;20422;-69
2022/12/04 04:34:48;;;;;;;27.03;19.33;;;4.60;99.90;;;;;;5033046;28;20189;-70
2022/12/04 04:38:10;;;;;;;26.00;19.00;;;4.30;99.90;;;;;;5033079;28;20386;-71
2022/12/04 04:40:59;;;;;;;29.57;19.47;;;4.20;99.90;;;;;;4934189;29;20921;-71
2022/12/04 04:43:47;;;;;;;28.93;19.43;;;4.50;99.90;;;;;;4908038;29;20796;-71
2022/12/04 04:46:36;;;;;;;26.33;17.20;;;4.70;99.90;;;;;;4984317;28;20464;-71
2022/12/04 04:49:06;;;;;;;24.17;17.67;;;4.80;99.90;;;;;;4993588;28;20768;-70
2022/12/04 04:51:33;;;;;;;24.33;18.10;;;4.80;99.90;;;;;;4993418;28;20528;-71
2022/12/04 04:54:03;;;;;;;29.50;19.73;;;4.80;99.90;;;;;;4993659;28;20443;-71
2022/12/04 04:56:29;;;;;;;26.20;17.53;;;4.80;99.90;;;;;;4993591;28;20451;-71
2022/12/04 04:58:55;;;;;;;23.43;16.90;;;4.70;99.90;;;;;;5017874;28;20434;-71
2022/12/04 05:01:25;;;;;;;24.50;17.40;;;4.90;99.90;;;;;;5032631;28;20425;-71
2022/12/04 05:03:51;;;;;;;28.17;18.50;;;4.90;99.90;;;;;;5022281;28;20164;-71
2022/12/04 05:06:16;;;;;;;24.93;17.27;;;4.90;99.90;;;;;;4995119;28;20466;-70
2022/12/04 05:08:43;;;;;;;26.23;18.20;;;5.00;99.90;;;;;;5028403;28;20187;-71
2022/12/04 05:11:12;;;;;;;24.40;17.40;;;4.70;99.90;;;;;;5014639;28;20196;-70
2022/12/04 05:13:38;;;;;;;19.53;15.83;;;4.50;99.90;;;;;;5032535;28;20434;-70
2022/12/04 05:16:07;;;;;;;26.33;17.33;;;4.50;99.90;;;;;;5031316;28;20860;-70
2022/12/04 05:18:34;;;;;;;28.40;18.73;;;4.40;99.90;;;;;;5036454;28;20183;-71
2022/12/04 05:21:08;;;;;;;21.70;16.27;;;4.40;99.90;;;;;;5034657;28;20794;-71
2022/12/04 05:23:34;;;;;;;26.07;17.77;;;4.40;99.90;;;;;;5036657;28;20422;-70
2022/12/04 05:26:01;;;;;;;24.27;16.00;;;4.40;99.90;;;;;;5036298;28;20449;-70
2022/12/04 05:28:26;;;;;;;22.03;15.20;;;4.30;99.90;;;;;;5035067;28;20526;-71
2022/12/04 05:30:56;;;;;;;24.23;16.73;;;4.30;99.90;;;;;;5036067;28;20952;-71
2022/12/04 05:33:22;;;;;;;22.00;15.77;;;4.50;99.90;;;;;;5036066;28;20425;-71
2022/12/04 05:36:02;;;;;;;21.70;15.67;;;4.30;99.90;;;;;;5036484;28;20901;-70
2022/12/04 05:38:28;;;;;;;22.73;15.07;;;4.30;99.90;;;;;;5036391;28;20178;-70
2022/12/04 05:40:57;;;;;;;26.47;17.30;;;4.10;99.90;;;;;;5036105;28;20433;-70
2022/12/04 05:43:22;;;;;;;20.70;15.00;;;4.00;99.90;;;;;;5035890;28;20406;-70
2022/12/04 05:45:48;;;;;;;21.20;15.53;;;4.10;99.90;;;;;;5035657;28;20441;-70
2022/12/04 05:48:14;;;;;;;22.20;15.67;;;4.20;99.90;;;;;;5036085;28;20176;-71
2022/12/04 05:50:40;;;;;;;24.83;17.20;;;4.20;99.90;;;;;;5035893;28;20159;-70
2022/12/04 05:53:05;;;;;;;22.17;15.70;;;4.30;99.90;;;;;;5035683;28;20167;-71
2022/12/04 05:55:31;;;;;;;20.73;13.60;;;4.40;99.90;;;;;;5035801;28;20171;-70
2022/12/04 05:57:57;;;;;;;24.00;15.10;;;4.20;99.90;;;;;;5036320;28;20628;-71
2022/12/04 06:00:22;;;;;;;22.13;14.33;;;4.10;99.90;;;;;;5035190;28;20202;-71
2022/12/04 06:02:48;;;;;;;23.17;15.40;;;4.10;99.90;;;;;;5035583;28;20188;-71
2022/12/04 06:05:13;;;;;;;22.20;15.20;;;4.00;99.90;;;;;;5035491;28;20195;-71
2022/12/04 06:07:39;;;;;;;21.97;16.63;;;4.10;99.90;;;;;;5017963;28;20207;-70
2022/12/04 06:10:05;;;;;;;25.47;18.10;;;4.10;99.90;;;;;;5035598;28;20230;-71
2022/12/04 06:12:31;;;;;;;21.00;14.67;;;4.10;99.90;;;;;;5035573;28;20188;-71
2022/12/04 06:14:56;;;;;;;24.17;15.47;;;4.20;99.90;;;;;;5017254;28;20418;-70
2022/12/04 06:17:22;;;;;;;24.70;15.20;;;4.40;99.90;;;;;;5018275;28;20184;-70
2022/12/04 06:19:48;;;;;;;24.30;16.07;;;4.50;99.90;;;;;;5006595;28;20182;-70
2022/12/04 06:22:13;;;;;;;22.93;15.47;;;4.50;99.90;;;;;;5006124;28;20564;-71
2022/12/04 06:24:39;;;;;;;23.43;16.30;;;4.30;99.90;;;;;;5006372;28;20180;-71
2022/12/04 06:27:05;;;;;;;23.73;16.37;;;4.20;99.90;;;;;;5005550;28;20666;-71
2022/12/04 06:29:31;;;;;;;25.63;16.40;;;4.20;99.90;;;;;;5006084;28;20183;-70
2022/12/04 06:31:57;;;;;;;19.77;14.57;;;4.30;99.90;;;;;;5004664;28;20443;-70
2022/12/04 06:34:22;;;;;;;23.47;16.80;;;4.50;99.90;;;;;;5006043;28;20443;-70
2022/12/04 06:36:48;;;;;;;24.50;16.80;;;4.50;99.90;;;;;;5006150;28;20207;-71
2022/12/04 06:39:13;;;;;;;20.40;14.30;;;4.20;99.90;;;;;;5006518;28;20184;-71
2022/12/04 06:41:39;;;;;;;22.20;15.40;;;4.20;99.90;;;;;;5005868;28;20200;-70
2022/12/04 06:44:05;;;;;;;19.67;13.93;;;4.40;99.90;;;;;;5005301;28;20185;-70
2022/12/04 06:46:32;;;;;;;22.43;16.60;;;4.40;99.90;;;;;;5005356;28;20624;-71
2022/12/04 06:48:59;;;;;;;22.50;14.57;;;4.40;99.90;;;;;;5005499;28;20198;-72
2022/12/04 06:51:34;;;;;;;20.50;15.30;;;4.20;99.90;;;;;;5005488;28;20430;-71
2022/12/04 06:54:00;;;;;;;23.10;15.33;;;4.20;99.90;;;;;;5005717;28;20438;-71
2022/12/04 06:56:30;;;;;;;22.10;15.37;;;4.30;99.90;;;;;;5005330;28;20415;-70
2022/12/04 06:58:58;;;;;;;24.47;17.43;;;4.40;99.90;;;;;;5005601;28;21707;-70
2022/12/04 07:01:26;;;;;;;22.20;17.87;;;4.30;99.90;;;;;;5005041;28;20442;-70
2022/12/04 07:03:53;;;;;;;22.87;16.17;;;4.40;99.90;;;;;;4987836;28;20422;-71
2022/12/04 07:06:27;;;;;;;24.97;16.23;;;4.40;99.90;;;;;;5005246;28;20520;-71
2022/12/04 07:08:59;;;;;;;19.23;13.67;;;4.40;99.90;;;;;;5005235;28;20414;-70
2022/12/04 07:11:25;;;;;;;21.07;15.30;;;4.60;99.90;;;;;;5005401;28;20461;-73
2022/12/04 07:13:51;;;;;;;23.93;15.70;;;4.80;99.90;;;;;;5005369;28;20469;-70
2022/12/04 07:16:18;;;;;;;22.63;15.40;;;4.70;99.90;;;;;;5003783;28;20438;-71
2022/12/04 07:18:44;;;;;;;24.80;15.60;;;4.60;99.90;;;;;;5005647;28;20551;-71
2022/12/04 07:21:15;;;;;;;21.40;15.10;;;4.50;99.90;;;;;;5005229;28;20546;-70
2022/12/04 07:23:40;;;;;;;21.03;14.23;;;4.70;99.90;;;;;;5005831;28;20422;-71
2022/12/04 07:26:08;;;;;;;17.63;13.70;;;4.60;99.90;;;;;;5005056;28;21045;-71
2022/12/04 07:28:35;;;;;;;27.30;16.70;;;4.70;99.90;;;;;;5005154;28;20294;-71
2022/12/04 07:31:08;;;;;;;20.93;14.40;;;4.80;99.90;;;;;;5004486;28;20442;-70
2022/12/04 07:33:34;;;;;;;25.83;17.20;;;4.70;99.90;;;;;;5003909;28;20485;-70
2022/12/04 07:36:03;;;;;;;23.20;16.30;;;4.70;99.90;;;;;;5007503;28;20410;-71
2022/12/04 07:38:29;;;;;;;21.63;16.17;;;4.80;99.90;;;;;;5013419;28;20791;-70
2022/12/04 07:40:58;;;;;;;21.43;15.17;;;4.90;99.90;;;;;;5013701;28;20446;-71
2022/12/04 07:43:26;;;;;;;35.20;25.40;;;5.10;99.90;;;;;;5014242;28;20555;-71
2022/12/04 07:45:51;;;;;;;20.50;15.40;;;4.90;99.90;;;;;;5013899;28;20459;-71
2022/12/04 07:48:17;;;;;;;23.50;15.63;;;4.90;99.90;;;;;;5013486;28;20418;-70
2022/12/04 07:50:43;;;;;;;23.63;16.30;;;4.80;99.90;;;;;;5013892;28;20173;-71
2022/12/04 07:53:08;;;;;;;36.47;23.80;;;4.50;99.90;;;;;;5012954;28;20180;-70
2022/12/04 07:55:34;;;;;;;45.00;28.93;;;4.70;99.90;;;;;;5014132;28;20211;-71
2022/12/04 07:57:59;;;;;;;21.47;15.43;;;4.90;99.90;;;;;;5013877;28;20181;-71
2022/12/04 08:00:25;;;;;;;23.20;15.30;;;5.00;99.90;;;;;;5013953;28;20179;-71
2022/12/04 08:02:51;;;;;;;21.70;14.20;;;5.00;99.90;;;;;;5025661;28;20259;-69
2022/12/04 08:05:17;;;;;;;22.60;15.47;;;4.90;99.90;;;;;;5033452;28;20558;-70
2022/12/04 08:07:43;;;;;;;22.50;15.77;;;4.90;99.90;;;;;;5033192;28;20180;-70
2022/12/04 08:10:09;;;;;;;25.03;17.47;;;4.70;99.90;;;;;;5033679;28;20406;-71
2022/12/04 08:12:34;;;;;;;26.67;16.83;;;4.60;99.90;;;;;;5033103;28;20187;-69
2022/12/04 08:15:00;;;;;;;24.60;17.33;;;4.40;99.90;;;;;;5033380;28;20406;-70
2022/12/04 08:17:26;;;;;;;26.53;17.97;;;4.60;99.90;;;;;;5032129;28;20174;-69
2022/12/04 08:19:52;;;;;;;21.83;16.13;;;4.70;99.90;;;;;;5033027;28;20489;-68
2022/12/04 08:22:18;;;;;;;25.10;17.63;;;4.70;99.90;;;;;;5033264;28;20422;-68
2022/12/04 08:24:44;;;;;;;25.87;16.70;;;4.40;99.90;;;;;;5033483;28;20933;-69
2022/12/04 08:27:09;;;;;;;22.10;16.17;;;4.40;99.90;;;;;;5033426;28;20191;-69
2022/12/04 08:29:35;;;;;;;24.10;15.63;;;4.70;99.90;;;;;;5033054;28;20250;-71
2022/12/04 08:32:01;;;;;;;25.17;17.13;;;4.80;99.90;;;;;;5031207;28;20197;-68
2022/12/04 08:34:27;;;;;;;25.53;17.43;;;4.80;99.90;;;;;;5033158;28;20565;-68
2022/12/04 08:36:53;;;;;;;22.23;15.73;;;4.70;99.90;;;;;;5033160;28;20404;-69
2022/12/04 08:39:19;;;;;;;24.50;16.37;;;4.60;99.90;;;;;;5033470;28;20178;-69
2022/12/04 08:41:44;;;;;;;23.20;15.20;;;4.70;99.90;;;;;;5015090;28;20187;-70
2022/12/04 08:44:11;;;;;;;23.40;16.33;;;4.80;99.90;;;;;;5032852;28;20175;-70
2022/12/04 08:46:38;;;;;;;24.93;17.03;;;4.90;99.90;;;;;;5032734;28;20270;-70
2022/12/04 08:49:03;;;;;;;24.67;17.17;;;5.00;99.90;;;;;;5030794;28;20807;-70
2022/12/04 08:51:31;;;;;;;23.37;15.97;;;5.10;99.90;;;;;;5035232;28;20432;-69
2022/12/04 08:53:59;;;;;;;21.37;14.27;;;4.90;99.90;;;;;;5012113;28;20251;-69
2022/12/04 08:56:27;;;;;;;21.63;15.17;;;4.50;99.90;;;;;;5023295;28;20418;-70
2022/12/04 08:58:55;;;;;;;19.77;14.33;;;4.60;99.90;;;;;;5037226;28;20437;-69
2022/12/04 09:01:20;;;;;;;22.03;14.27;;;4.80;99.90;;;;;;5035023;28;20949;-69
2022/12/04 09:03:46;;;;;;;18.67;14.40;;;4.90;99.90;;;;;;5036749;28;20485;-70
2022/12/04 09:06:14;;;;;;;20.37;15.30;;;4.70;99.90;;;;;;5020159;28;20352;-70
2022/12/04 09:08:40;;;;;;;20.70;16.40;;;4.90;99.90;;;;;;5036650;28;20163;-70
2022/12/04 09:11:07;;;;;;;22.87;16.07;;;4.80;99.90;;;;;;5017289;28;20811;-70
2022/12/04 09:13:33;;;;;;;22.53;15.30;;;4.90;99.90;;;;;;5036249;28;20981;-69
2022/12/04 09:16:03;;;;;;;21.13;14.37;;;4.90;99.90;;;;;;5018573;28;20406;-70
2022/12/04 09:18:28;;;;;;;22.90;16.10;;;4.80;99.90;;;;;;5036007;28;20406;-70
2022/12/04 09:20:58;;;;;;;20.20;14.80;;;4.70;99.90;;;;;;5036502;28;20422;-69
2022/12/04 09:23:25;;;;;;;20.60;14.47;;;4.60;99.90;;;;;;5036225;28;20160;-70
2022/12/04 09:25:51;;;;;;;20.23;15.13;;;4.80;99.90;;;;;;5034992;28;20473;-70
2022/12/04 09:28:17;;;;;;;23.83;17.83;;;4.80;99.90;;;;;;5036380;28;20402;-69
2022/12/04 09:30:42;;;;;;;23.63;16.00;;;4.80;99.90;;;;;;5036498;28;20176;-70
2022/12/04 09:33:08;;;;;;;27.10;17.47;;;4.90;99.90;;;;;;5034540;28;20425;-70
2022/12/04 09:35:33;;;;;;;22.03;16.63;;;4.90;99.90;;;;;;5036223;28;20160;-69
2022/12/04 09:37:59;;;;;;;22.70;15.13;;;4.90;99.90;;;;;;5035937;28;20225;-70
2022/12/04 09:40:28;;;;;;;21.20;14.77;;;4.80;99.90;;;;;;5036080;28;20202;-70
2022/12/04 09:43:19;;;;;;;23.67;16.40;;;4.80;99.90;;;;;;5036186;28;20410;-70
2022/12/04 09:45:49;;;;;;;24.30;17.33;;;4.90;99.90;;;;;;5037126;28;21000;-69
2022/12/04 09:48:17;;;;;;;21.60;15.63;;;5.10;99.90;;;;;;5035289;28;20394;-70
2022/12/04 09:50:44;;;;;;;25.57;19.00;;;5.00;99.90;;;;;;5033746;28;20843;-70
2022/12/04 09:53:15;;;;;;;20.70;15.63;;;5.00;99.90;;;;;;5035864;28;20403;-69
2022/12/04 09:56:02;;;;;;;20.10;16.40;;;4.60;99.90;;;;;;5034145;28;20429;-71
2022/12/04 09:58:44;;;;;;;24.70;16.93;;;4.60;99.90;;;;;;5035495;28;20411;-69
2022/12/04 10:01:22;;;;;;;23.07;16.57;;;4.70;99.90;;;;;;5036042;28;20506;-70
2022/12/04 10:03:49;;;;;;;21.70;15.20;;;4.80;99.90;;;;;;5035372;28;20393;-69
2022/12/04 10:06:20;;;;;;;22.90;17.37;;;5.00;99.90;;;;;;5035683;28;20541;-69
2022/12/04 10:09:06;;;;;;;22.00;17.07;;;4.90;99.90;;;;;;5035343;28;20410;-70
2022/12/04 10:11:53;;;;;;;26.23;20.63;;;4.40;99.90;;;;;;5035402;28;20426;-70
2022/12/04 10:14:42;;;;;;;26.73;20.00;;;4.40;99.90;;;;;;5035239;28;20402;-69
2022/12/04 10:17:31;;;;;;;27.00;19.23;;;4.60;99.90;;;;;;5017429;28;20921;-69
2022/12/04 10:20:02;;;;;;;23.20;17.60;;;4.90;99.90;;;;;;5017592;28;20407;-70
2022/12/04 10:22:50;;;;;;;21.67;16.20;;;4.90;99.90;;;;;;5035010;28;20441;-69
2022/12/04 10:25:21;;;;;;;24.00;17.53;;;4.90;99.90;;;;;;5016469;28;20453;-70
2022/12/04 10:28:17;;;;;;;21.90;18.03;;;4.60;99.90;;;;;;4995497;28;20499;-71
2022/12/04 10:30:44;;;;;;;28.93;20.50;;;4.80;99.90;;;;;;4981703;28;20427;-72
2022/12/04 10:33:18;;;;;;;25.20;18.70;;;5.10;99.90;;;;;;4995736;28;21006;-71
2022/12/04 10:35:46;;;;;;;26.43;19.10;;;5.20;99.90;;;;;;4995867;28;20876;-75
2022/12/04 10:38:21;;;;;;;23.87;18.10;;;5.20;99.90;;;;;;4977735;28;20491;-71
2022/12/04 10:40:52;;;;;;;22.67;17.43;;;5.10;99.90;;;;;;4995367;28;20864;-72
2022/12/04 10:43:23;;;;;;;25.87;19.40;;;5.00;99.90;;;;;;5015594;28;20431;-71
2022/12/04 10:45:49;;;;;;;25.63;19.50;;;5.00;99.90;;;;;;5016880;28;20500;-72
2022/12/04 10:48:22;;;;;;;29.33;22.27;;;5.20;99.90;;;;;;5035096;28;20418;-71
2022/12/04 10:50:47;;;;;;;26.77;20.00;;;5.30;99.90;;;;;;5034518;28;20194;-71
2022/12/04 10:53:15;;;;;;;27.90;19.47;;;5.10;99.90;;;;;;5016780;28;20414;-71
2022/12/04 10:55:40;;;;;;;29.17;20.67;;;5.10;99.90;;;;;;5032817;28;20182;-72
2022/12/04 10:58:17;;;;;;;31.60;22.07;;;4.90;99.90;;;;;;5016089;28;20419;-72
2022/12/04 11:00:45;;;;;;;26.80;19.00;;;4.80;99.90;;;;;;4997004;28;20175;-72
2022/12/04 11:03:24;;;;;;;27.20;19.17;;;4.90;99.90;;;;;;5000297;28;20791;-72
2022/12/04 11:05:55;;;;;;;27.67;19.77;;;4.60;99.90;;;;;;4995151;28;20490;-73
2022/12/04 11:08:30;;;;;;;26.37;19.37;;;4.60;99.90;;;;;;4995015;28;20429;-71
2022/12/04 11:11:00;;;;;;;29.80;20.57;;;4.70;99.90;;;;;;5034290;28;20433;-71
2022/12/04 11:13:26;;;;;;;28.27;20.23;;;4.90;99.90;;;;;;5034667;28;20509;-71
2022/12/04 11:15:54;;;;;;;28.77;20.50;;;5.00;99.90;;;;;;5036227;28;20445;-72
2022/12/04 11:18:28;;;;;;;28.17;20.80;;;4.90;99.90;;;;;;5034275;28;20167;-70
2022/12/04 11:21:00;;;;;;;24.93;18.27;;;4.80;99.90;;;;;;5034591;28;20445;-71
2022/12/04 11:23:31;;;;;;;25.97;18.40;;;4.60;99.90;;;;;;5034280;28;20506;-71
2022/12/04 11:25:58;;;;;;;28.87;20.57;;;4.70;99.90;;;;;;5033928;28;20438;-71
2022/12/04 11:28:29;;;;;;;26.20;19.80;;;4.90;99.90;;;;;;5034428;28;20449;-71
2022/12/04 11:30:57;;;;;;;27.67;18.63;;;4.90;99.90;;;;;;5034301;28;20838;-72
2022/12/04 11:33:41;;;;;;;25.80;18.30;;;4.70;99.90;;;;;;5034717;28;20429;-71
2022/12/04 11:36:36;;;;;;;24.30;17.90;;;4.60;99.90;;;;;;5034121;28;20460;-71
2022/12/04 11:39:35;;;;;;;27.27;17.17;;;4.80;99.90;;;;;;5022477;28;20422;-71
2022/12/04 11:42:25;;;;;;;22.70;15.83;;;4.60;99.90;;;;;;5033286;28;20422;-70
2022/12/04 11:44:54;;;;;;;22.20;15.27;;;4.60;99.90;;;;;;5021780;28;20468;-70
2022/12/04 11:47:22;;;;;;;22.27;16.50;;;4.50;99.90;;;;;;5033669;28;20511;-70
2022/12/04 11:50:00;;;;;;;21.27;16.17;;;4.80;99.90;;;;;;5015620;28;20420;-71
2022/12/04 11:52:40;;;;;;;20.93;14.40;;;5.00;99.90;;;;;;5033124;28;20861;-71
2022/12/04 11:55:22;;;;;;;23.00;16.13;;;5.20;99.90;;;;;;5033309;28;20868;-72
2022/12/04 11:58:16;;;;;;;22.50;16.03;;;5.40;99.90;;;;;;4994039;28;20464;-70
2022/12/04 12:01:05;;;;;;;20.10;15.03;;;5.40;99.90;;;;;;4994406;28;20463;-70
2022/12/04 12:03:41;;;;;;;21.70;16.33;;;5.40;99.90;;;;;;4976016;28;20931;-70
2022/12/04 12:06:25;;;;;;;20.90;14.97;;;5.40;99.90;;;;;;4993852;28;20446;-70
2022/12/04 12:09:21;;;;;;;21.63;15.23;;;5.20;99.90;;;;;;4994202;28;20403;-70
2022/12/04 12:11:53;;;;;;;20.90;14.70;;;5.20;99.90;;;;;;4993877;28;20447;-70
2022/12/04 12:14:44;;;;;;;23.63;16.00;;;5.00;99.90;;;;;;4993744;28;20422;-70
2022/12/04 12:17:45;;;;;;;27.03;16.73;;;5.30;99.90;;;;;;4982587;28;20489;-71
2022/12/04 12:20:37;;;;;;;20.03;15.27;;;5.40;99.90;;;;;;4989974;28;20453;-70
2022/12/04 12:23:54;;;;;;;25.27;17.87;;;5.00;99.90;;;;;;4994161;28;20391;-70
2022/12/04 12:26:26;;;;;;;22.87;15.67;;;5.30;99.90;;;;;;4993643;28;20473;-70
2022/12/04 12:29:30;;;;;;;20.67;14.87;;;5.20;99.90;;;;;;4994061;28;20394;-71
2022/12/04 12:32:13;;;;;;;23.00;17.07;;;5.50;99.90;;;;;;4926011;29;20449;-71
2022/12/04 12:34:42;;;;;;;24.40;16.30;;;5.30;99.90;;;;;;5027928;28;20807;-70
2022/12/04 12:37:21;;;;;;;25.10;16.87;;;4.80;99.90;;;;;;5033361;28;20436;-70
2022/12/04 12:39:55;;;;;;;24.13;18.00;;;4.60;99.90;;;;;;5033364;28;20921;-71
2022/12/04 12:42:27;;;;;;;24.30;17.53;;;4.80;99.90;;;;;;5032984;28;20461;-69
2022/12/04 12:45:02;;;;;;;24.97;18.40;;;5.10;99.90;;;;;;5033104;28;20403;-71
2022/12/04 12:47:33;;;;;;;21.93;16.00;;;5.20;99.90;;;;;;5032820;28;20723;-70
2022/12/04 12:50:05;;;;;;;20.30;15.60;;;5.10;99.90;;;;;;5032944;28;20406;-71
2022/12/04 12:53:00;;;;;;;24.67;18.60;;;4.90;99.90;;;;;;5032930;28;20458;-70
2022/12/04 12:55:33;;;;;;;23.90;16.80;;;4.70;99.90;;;;;;5002478;28;20413;-70
2022/12/04 12:58:08;;;;;;;23.73;16.43;;;4.70;99.90;;;;;;5014074;28;20394;-69
2022/12/04 13:00:42;;;;;;;21.63;15.60;;;4.90;99.90;;;;;;5010682;28;20410;-70
2022/12/04 13:03:38;;;;;;;24.33;17.20;;;5.20;99.90;;;;;;5027169;28;20471;-70
2022/12/04 13:06:10;;;;;;;24.67;15.60;;;5.10;99.90;;;;;;5032559;28;20509;-70
2022/12/04 13:08:42;;;;;;;26.33;19.10;;;5.00;99.90;;;;;;5030733;28;20569;-70
2022/12/04 13:11:22;;;;;;;24.60;17.47;;;5.20;99.90;;;;;;5007651;28;20916;-70